Aérodrome :
LOGIN :

S'inscrire | Disclaimer

   EN    FR    IT 

 










Légende :    VFR   VFR Marginal   IFR   IFR Intensif   IFR Très Intensif
Visi : 
Plafond : 
>= 8 km
>= 3000ft
5 à 8 km
1000 à 3000 ft
1500m à 5 km
500 à 1000 ft
800 à 1500m
200 à 500 ft
< 800m
< 200 ft
Symboles :   Orages  Brouillard  Fortes neiges  Fortes précipitations  Vent > 20 kt
SIGMETs :   Divers  Orages  Givrage  Turbulence  Onde Orograph.  Cendres Volcan.







- Altitude de l'aérodrome : 1090 ft
- Code IATA : CFE
- Voir les cartes d'approche


LFLC - Clermont-Ferrand Auvergne

DERNIER METAR :
  • 240000Z AUTO 20008KT 170V240 9999 FEW021/// BKN066/// OVC080/// ///TCU 18/13 Q1015 TEMPO 27015G25KT 4000 RA

METARs EXPIRÉS :
  • 232330Z AUTO 17005KT 140V200 9999 BKN041/// OVC054/// ///TCU 19/12 Q1016 BECMG BKN055
  • 232300Z AUTO 16006KT 9999 BKN044/// BKN064/// BKN110/// ///TCU 19/12 Q1016 BECMG BKN055
  • 232230Z AUTO 15005KT 100V200 9999 FEW045 BKN160 OVC180 19/12 Q1016 NOSIG
  • 232200Z AUTO 19004KT 130V230 9999 SCT045 BKN120 OVC140 19/11 Q1016 NOSIG
  • 232130Z AUTO 14004KT 9999 SCT047 BKN100 OVC140 19/11 Q1017 NOSIG

TAF AMD TAF LFLC
Valide du 23 à 23h jusqu'au 24 à 21h UTC


232324Z 2323/2421 22009KT 9999 BKN055
TEMPO 2400/2406 27015G25KT 4000 RA SCT035TCU OVC050
BECMG 2404/2406 30012KT
TEMPO 2406/2410 -RA BKN020
ATIS : +33 4 73 62 74 38
Pas de NOTAMs connus pour ce terrain.



MET'MAP, la Météo Aéronautique d'un coup d'oeil ! - Copyright ORBIFLY Décembre 2007 - Disclaimer

ORBIFLY MET'MAP TEAM :

Programmation & Développement : Alexandra Zaïnal
Conception & Développement : Baudouin d'Aumeries
Co-Programmation & Développement : Marc-Olivier Méhu
Soutien technique & logistique : Manuel Goepfert

Contact : metmap@orbifly.com




SOURCES & CREDITS :

   NOAA